Time;durP1;ratioP1;P1;durP2;ratioP2;P2;SDS_P1;SDS_P2;PMS_P1;PMS_P2;Temp;Humidity;BMP_temperature;BMP_pressure;BME280_temperature;BME280_humidity;BME280_pressure;Samples;Min_cycle;Max_cycle;Signal;HPM_P1;HPM_P2
2021/11/12 00:13:28;;;;;;;17.08;11.70;;;11.30;90.20;;;;;;4955299;29;20101;-78
2021/11/12 00:16:01;;;;;;;18.33;11.82;;;11.20;90.20;;;;;;4955107;28;20126;-73
2021/11/12 00:18:30;;;;;;;17.25;12.52;;;11.20;90.20;;;;;;4955335;29;20042;-74
2021/11/12 00:21:01;;;;;;;19.42;12.07;;;11.10;90.10;;;;;;4955943;29;20046;-80
2021/11/12 00:23:30;;;;;;;15.88;10.98;;;11.10;90.00;;;;;;4954977;29;20047;-78
2021/11/12 00:25:57;;;;;;;14.50;11.10;;;11.10;90.00;;;;;;4956200;28;20051;-79
2021/11/12 00:28:27;;;;;;;15.40;11.05;;;11.00;90.00;;;;;;4954834;28;20055;-73
2021/11/12 00:31:20;;;;;;;14.77;9.73;;;10.90;90.00;;;;;;4955514;29;20081;-76
2021/11/12 00:44:45;;;;;;;11.27;8.43;;;11.00;88.30;;;;;;4955596;28;20511;-78
2021/11/12 00:47:33;;;;;;;13.63;9.50;;;11.00;88.00;;;;;;4953885;29;20059;-76
2021/11/12 00:55:10;;;;;;;14.80;11.02;;;10.70;89.60;;;;;;4955322;29;20061;-78
2021/11/12 00:57:37;;;;;;;14.98;10.50;;;10.80;89.10;;;;;;4962904;28;20065;-75
2021/11/12 01:00:06;;;;;;;16.88;10.88;;;10.60;89.90;;;;;;4955035;28;20043;-79
2021/11/12 01:02:34;;;;;;;11.50;8.55;;;10.60;90.60;;;;;;4961244;28;20043;-79
2021/11/12 01:05:04;;;;;;;8.82;5.97;;;10.70;90.50;;;;;;4938872;29;20138;-78
2021/11/12 01:07:31;;;;;;;13.85;9.10;;;10.80;89.50;;;;;;4955019;28;20051;-79
2021/11/12 01:09:59;;;;;;;14.57;10.15;;;10.90;89.00;;;;;;4954933;28;20042;-76
2021/11/12 01:12:26;;;;;;;13.48;10.18;;;10.80;88.80;;;;;;4955411;28;20503;-75
2021/11/12 01:14:54;;;;;;;15.27;10.27;;;10.70;89.10;;;;;;4954388;28;20055;-78
2021/11/12 01:17:21;;;;;;;15.23;9.60;;;10.60;90.00;;;;;;4953795;28;20039;-78
2021/11/12 01:19:48;;;;;;;13.52;9.68;;;10.50;90.30;;;;;;4953699;28;20072;-80
2021/11/12 01:22:15;;;;;;;12.35;8.65;;;10.50;90.60;;;;;;4955044;28;20043;-76
2021/11/12 01:24:45;;;;;;;12.27;9.07;;;10.50;90.80;;;;;;4937150;29;20131;-76
2021/11/12 01:27:12;;;;;;;14.40;9.38;;;10.40;91.10;;;;;;4954423;28;20043;-79
2021/11/12 01:29:39;;;;;;;10.73;8.05;;;10.40;91.10;;;;;;4953974;28;20456;-79
2021/11/12 01:32:21;;;;;;;8.55;5.95;;;10.40;90.90;;;;;;4954411;29;20054;-78
2021/11/12 01:34:51;;;;;;;2.88;1.67;;;10.40;90.60;;;;;;4937556;29;20047;-76
2021/11/12 01:37:21;;;;;;;3.10;1.70;;;10.70;86.50;;;;;;4954658;28;20047;-76
2021/11/12 01:39:53;;;;;;;3.75;1.45;;;11.00;83.70;;;;;;4952611;28;20046;-78
2021/11/12 01:42:21;;;;;;;3.30;1.77;;;11.30;81.20;;;;;;4954122;29;20063;-75
2021/11/12 01:45:00;;;;;;;4.70;3.58;;;11.60;79.40;;;;;;4969355;28;20046;-75
2021/11/12 01:48:08;;;;;;;6.68;4.30;;;11.70;79.80;;;;;;4953968;28;20562;-76
2021/11/12 01:50:33;;;;;;;8.57;4.10;;;11.70;80.70;;;;;;4968812;28;20521;-79
2021/11/12 01:53:08;;;;;;;5.57;3.45;;;11.60;81.80;;;;;;4953529;29;20061;-76
2021/11/12 01:55:54;;;;;;;6.40;2.85;;;11.60;81.50;;;;;;4953268;28;20053;-78
2021/11/12 01:58:38;;;;;;;2.25;1.60;;;11.60;80.30;;;;;;4952889;28;20373;-80
2021/11/12 02:01:06;;;;;;;5.05;1.75;;;11.80;78.60;;;;;;4954144;28;20122;-75
2021/11/12 02:03:33;;;;;;;2.35;1.77;;;11.90;76.90;;;;;;4954352;28;20099;-79
2021/11/12 02:06:00;;;;;;;3.22;2.00;;;12.00;76.20;;;;;;4953459;28;20135;-79
2021/11/12 02:08:27;;;;;;;6.28;3.58;;;12.20;76.50;;;;;;4952597;29;20051;-79
2021/11/12 02:10:54;;;;;;;3.35;1.80;;;12.10;77.40;;;;;;4936781;29;20043;-75
2021/11/12 02:13:24;;;;;;;3.08;2.00;;;12.10;75.50;;;;;;4952407;28;20127;-77
2021/11/12 02:15:52;;;;;;;3.75;1.90;;;12.20;75.00;;;;;;4968808;28;20507;-76
2021/11/12 02:18:30;;;;;;;6.18;3.55;;;12.30;75.60;;;;;;4953442;28;20062;-76
2021/11/12 02:26:27;;;;;;;5.85;1.92;;;12.10;77.90;;;;;;4952173;29;20047;-76
2021/11/12 02:28:57;;;;;;;2.03;1.40;;;12.00;76.40;;;;;;4954210;28;20038;-77
2021/11/12 02:31:26;;;;;;;2.80;1.85;;;12.10;74.60;;;;;;4952477;28;20107;-76
2021/11/12 02:33:56;;;;;;;7.15;2.88;;;12.10;74.50;;;;;;4954306;28;20046;-76
2021/11/12 02:36:23;;;;;;;3.20;1.50;;;12.20;75.70;;;;;;4936378;29;20069;-79
2021/11/12 02:38:53;;;;;;;2.60;1.63;;;12.20;74.80;;;;;;4953433;28;20066;-75
2021/11/12 02:41:23;;;;;;;4.95;2.83;;;12.20;74.40;;;;;;4953896;28;20411;-78
2021/11/12 02:43:51;;;;;;;4.57;3.20;;;12.20;76.50;;;;;;4952152;28;20043;-79
2021/11/12 02:46:20;;;;;;;4.90;3.00;;;12.10;77.20;;;;;;4951955;28;20047;-75
2021/11/12 02:48:48;;;;;;;3.00;2.10;;;12.00;77.40;;;;;;4951626;29;20043;-79
2021/11/12 02:51:21;;;;;;;5.57;1.50;;;11.90;76.20;;;;;;4951668;28;20078;-78
2021/11/12 02:53:49;;;;;;;2.40;1.70;;;11.90;75.40;;;;;;4951744;28;20073;-76
2021/11/12 02:56:31;;;;;;;3.30;2.10;;;11.90;75.40;;;;;;4952085;29;20047;-75
2021/11/12 02:59:10;;;;;;;4.32;1.80;;;11.90;76.90;;;;;;4951153;29;20045;-80
2021/11/12 03:01:42;;;;;;;4.18;1.52;;;12.00;74.80;;;;;;4953993;28;20039;-79
2021/11/12 03:04:10;;;;;;;5.28;2.28;;;12.10;73.90;;;;;;4935407;29;20050;-75
2021/11/12 03:06:38;;;;;;;4.45;3.00;;;12.20;74.70;;;;;;4952082;29;20047;-80
2021/11/12 03:09:07;;;;;;;3.63;2.83;;;12.20;74.80;;;;;;4951626;28;20039;-75
2021/11/12 03:11:35;;;;;;;8.63;5.13;;;12.10;75.70;;;;;;4952121;29;20043;-80
2021/11/12 03:14:03;;;;;;;8.00;5.97;;;12.00;78.10;;;;;;4951024;28;20435;-76
2021/11/12 03:16:30;;;;;;;4.47;3.25;;;11.60;80.50;;;;;;4953373;28;20053;-78
2021/11/12 03:18:59;;;;;;;6.60;2.67;;;11.50;80.30;;;;;;4952114;28;20035;-78
2021/11/12 03:21:28;;;;;;;4.78;2.80;;;11.50;78.80;;;;;;4951722;29;20221;-78
2021/11/12 03:26:33;;;;;;;2.40;1.58;;;11.70;76.10;;;;;;4953021;28;20047;-75
2021/11/12 03:46:56;;;;;;;1.60;1.00;;;11.90;74.10;;;;;;4952833;28;20058;-75
2021/11/12 04:02:09;;;;;;;6.20;3.47;;;12.10;75.40;;;;;;4953131;28;20085;-75
2021/11/12 04:04:50;;;;;;;6.05;3.78;;;11.90;76.60;;;;;;4954002;28;20070;-79
2021/11/12 04:18:30;;;;;;;2.88;1.15;;;11.00;78.30;;;;;;4955820;28;20071;-79
2021/11/12 05:10:39;;;;;;;1.67;1.25;;;11.90;71.40;;;;;;4952802;29;20061;-76
2021/11/12 05:43:31;;;;;;;3.88;2.97;;;11.90;73.20;;;;;;4954823;28;20100;-75
2021/11/12 05:46:39;;;;;;;3.97;3.38;;;10.80;80.20;;;;;;4936299;29;20102;-74
2021/11/12 05:57:09;;;;;;;1.70;1.00;;;10.60;77.80;;;;;;4953985;29;20134;-79
2021/11/12 05:59:36;;;;;;;1.70;1.35;;;11.00;75.80;;;;;;4953053;28;20039;-77
2021/11/12 06:02:05;;;;;;;1.92;1.48;;;11.10;75.00;;;;;;4937053;29;20167;-75
2021/11/12 06:04:34;;;;;;;2.58;1.30;;;11.30;74.40;;;;;;4953697;29;20035;-79
2021/11/12 06:07:00;;;;;;;2.72;1.30;;;11.30;74.10;;;;;;4952487;29;20039;-76
2021/11/12 06:09:28;;;;;;;1.95;1.42;;;11.40;73.50;;;;;;4952559;28;20047;-75
2021/11/12 06:11:56;;;;;;;2.67;1.67;;;11.50;73.00;;;;;;4953662;28;20039;-75
2021/11/12 06:14:25;;;;;;;3.97;2.75;;;11.50;73.20;;;;;;4952071;28;20039;-75
2021/11/12 06:16:52;;;;;;;5.07;3.35;;;11.40;74.70;;;;;;4952477;29;20051;-79
2021/11/12 06:19:20;;;;;;;5.38;3.50;;;11.20;76.70;;;;;;4951587;29;20041;-74
2021/11/12 06:21:47;;;;;;;4.63;3.17;;;10.90;78.00;;;;;;4951952;28;20042;-78
2021/11/12 06:24:14;;;;;;;6.07;3.45;;;10.60;79.30;;;;;;4954341;28;20146;-75
2021/11/12 06:26:41;;;;;;;4.65;3.47;;;10.40;80.70;;;;;;4952887;28;20039;-74
2021/11/12 06:29:09;;;;;;;3.90;3.28;;;10.30;81.30;;;;;;4952594;28;20039;-79
2021/11/12 06:31:37;;;;;;;6.60;3.38;;;10.10;82.50;;;;;;4952136;28;20062;-78
2021/11/12 06:34:04;;;;;;;8.63;4.18;;;10.00;83.50;;;;;;4953821;28;20039;-77
2021/11/12 06:36:31;;;;;;;6.50;3.88;;;9.90;83.50;;;;;;4953094;29;20515;-79
2021/11/12 06:38:58;;;;;;;5.88;3.95;;;9.80;83.90;;;;;;4952680;28;20046;-75
2021/11/12 06:41:40;;;;;;;;;;;9.80;83.70;;;;;;4953837;29;20562;-75
2021/11/12 06:52:25;;;;;;;6.57;4.38;;;9.30;88.20;;;;;;4952837;29;20053;-75
2021/11/12 06:54:54;;;;;;;5.13;3.67;;;9.30;88.70;;;;;;4953184;28;20032;-76
2021/11/12 06:57:22;;;;;;;6.20;4.93;;;9.30;88.70;;;;;;4951364;29;20039;-75
2021/11/12 06:59:49;;;;;;;;;;;9.40;88.90;;;;;;4952049;29;20495;-75
2021/11/12 07:02:20;;;;;;;7.03;5.30;;;9.50;89.60;;;;;;4953666;28;19922;-75
2021/11/12 07:04:49;;;;;;;8.07;6.38;;;9.50;89.70;;;;;;4953562;28;20035;-79
2021/11/12 07:07:17;;;;;;;8.50;5.63;;;9.60;89.60;;;;;;4952182;28;20161;-78
2021/11/12 07:09:46;;;;;;;9.27;6.03;;;9.70;89.10;;;;;;4953991;28;20138;-79
2021/11/12 07:12:15;;;;;;;7.05;5.35;;;9.70;89.70;;;;;;4967328;28;20499;-75
2021/11/12 07:14:43;;;;;;;10.98;5.38;;;9.80;89.20;;;;;;4952794;29;20059;-75
2021/11/12 07:17:10;;;;;;;8.80;4.75;;;9.80;89.90;;;;;;4952111;29;20071;-79
2021/11/12 07:19:38;;;;;;;7.25;4.63;;;9.80;90.10;;;;;;4951324;28;20043;-78
2021/11/12 07:22:06;;;;;;;8.70;4.85;;;9.80;89.70;;;;;;4952120;29;20035;-76
2021/11/12 07:24:33;;;;;;;5.82;4.20;;;9.70;90.00;;;;;;4951803;28;20488;-75
2021/11/12 07:27:00;;;;;;;6.40;4.50;;;9.70;90.20;;;;;;4967463;28;20051;-75
2021/11/12 07:29:29;;;;;;;7.32;4.50;;;9.70;90.30;;;;;;4952166;28;20058;-78
2021/11/12 07:31:57;;;;;;;10.27;6.60;;;9.80;90.00;;;;;;4951798;28;20054;-77
2021/11/12 07:34:26;;;;;;;7.68;5.22;;;9.90;90.20;;;;;;4951407;28;20065;-77
2021/11/12 07:37:04;;;;;;;6.70;4.55;;;10.10;90.20;;;;;;4951737;29;20070;-75
2021/11/12 07:47:22;;;;;;;6.63;4.65;;;10.90;87.70;;;;;;4956299;28;20535;-76
2021/11/12 07:49:52;;;;;;;5.72;4.57;;;11.10;87.00;;;;;;4956774;28;20055;-79
2021/11/12 07:52:22;;;;;;;8.30;5.40;;;11.30;85.90;;;;;;4956207;28;20094;-75
2021/11/12 07:54:49;;;;;;;7.05;4.68;;;11.30;86.70;;;;;;4955247;28;20069;-79
2021/11/12 07:57:16;;;;;;;8.10;4.70;;;11.40;86.50;;;;;;4956442;28;20051;-78
2021/11/12 07:59:44;;;;;;;7.60;4.07;;;11.60;84.50;;;;;;4955862;28;20036;-75
2021/11/12 08:02:14;;;;;;;5.45;3.63;;;11.80;83.20;;;;;;4956093;28;20348;-79
2021/11/12 08:04:43;;;;;;;6.32;4.32;;;12.00;81.80;;;;;;4955248;29;20466;-75
2021/11/12 08:07:12;;;;;;;6.25;3.60;;;12.10;81.50;;;;;;4955898;28;20094;-75
2021/11/12 08:09:52;;;;;;;5.85;2.33;;;12.20;81.30;;;;;;4955145;28;20053;-75
2021/11/12 08:12:36;;;;;;;3.72;2.13;;;12.30;77.10;;;;;;4954864;28;20054;-76
2021/11/12 08:18:04;;;;;;;3.38;1.63;;;12.70;71.80;;;;;;4946365;28;20141;-79
2021/11/12 08:20:51;;;;;;;5.13;1.80;;;12.90;71.10;;;;;;4955478;29;20044;-75
2021/11/12 08:23:52;;;;;;;4.07;2.78;;;13.10;70.30;;;;;;4953973;28;20047;-77
2021/11/12 08:36:49;;;;;;;3.20;2.57;;;14.00;67.80;;;;;;4949955;28;20401;-78
2021/11/12 08:41:51;;;;;;;4.20;2.08;;;14.20;66.90;;;;;;4954296;28;20043;-78
2021/11/12 08:44:27;;;;;;;4.70;2.60;;;14.20;66.90;;;;;;4971291;28;20153;-75
2021/11/12 08:47:09;;;;;;;12.35;4.38;;;14.30;67.80;;;;;;4938696;29;20055;-75
2021/11/12 08:49:38;;;;;;;8.50;4.38;;;14.20;68.10;;;;;;4937293;29;20510;-78
2021/11/12 08:52:07;;;;;;;6.00;3.00;;;14.20;69.20;;;;;;4953753;28;20059;-75
2021/11/12 08:54:36;;;;;;;6.10;3.78;;;14.10;67.90;;;;;;4955288;28;20047;-79
2021/11/12 08:57:09;;;;;;;;;;;14.10;67.50;;;;;;4955336;28;20079;-78
2021/11/12 08:59:39;;;;;;;;;;;14.20;67.50;;;;;;4953168;29;19977;-74
2021/11/12 09:02:08;;;;;;;;;;;14.10;68.20;;;;;;4952399;29;19944;-75
2021/11/12 09:04:38;;;;;;;3.92;2.58;;;14.10;67.60;;;;;;4955850;28;20375;-75
2021/11/12 09:07:08;;;;;;;7.25;3.03;;;14.20;67.30;;;;;;4954316;28;20051;-75
2021/11/12 09:09:36;;;;;;;5.82;3.20;;;14.20;66.80;;;;;;4953006;28;20409;-77
2021/11/12 09:12:05;;;;;;;5.07;3.40;;;14.20;68.70;;;;;;4953350;28;20804;-74
2021/11/12 09:14:32;;;;;;;5.57;3.40;;;14.20;69.20;;;;;;4951837;28;20413;-74
2021/11/12 09:17:04;;;;;;;6.57;3.38;;;14.10;69.30;;;;;;4952016;28;20909;-74
2021/11/12 09:19:50;;;;;;;4.32;3.03;;;14.20;70.30;;;;;;4952901;28;20047;-77
2021/11/12 09:22:23;;;;;;;5.82;4.00;;;14.30;70.80;;;;;;4936584;29;20039;-72
2021/11/12 09:24:51;;;;;;;6.53;3.42;;;14.40;70.40;;;;;;4954497;28;20043;-75
2021/11/12 09:27:21;;;;;;;3.78;2.72;;;14.30;69.70;;;;;;4954098;29;20070;-75
2021/11/12 09:29:49;;;;;;;6.93;2.95;;;14.40;69.20;;;;;;4953255;28;20447;-75
2021/11/12 09:32:17;;;;;;;5.68;3.25;;;14.50;69.50;;;;;;4954113;28;20045;-75
2021/11/12 09:34:45;;;;;;;4.70;3.58;;;14.60;69.50;;;;;;4953059;28;20403;-72
2021/11/12 09:37:20;;;;;;;9.40;4.18;;;14.80;69.80;;;;;;4954589;29;20078;-77
2021/11/12 09:39:53;;;;;;;5.43;4.05;;;15.00;70.00;;;;;;4954469;28;20035;-74
2021/11/12 09:42:25;;;;;;;7.25;4.47;;;15.10;69.50;;;;;;4954547;29;20042;-79
2021/11/12 09:44:53;;;;;;;8.10;4.70;;;15.30;70.10;;;;;;4954050;28;20537;-79
2021/11/12 09:47:25;;;;;;;7.53;4.63;;;15.50;69.50;;;;;;4953704;28;20587;-78
2021/11/12 09:49:54;;;;;;;5.53;4.03;;;15.60;69.30;;;;;;4954337;28;20400;-78
2021/11/12 09:52:24;;;;;;;6.53;4.10;;;15.70;67.70;;;;;;4954868;28;20134;-72
2021/11/12 09:54:52;;;;;;;7.95;5.38;;;15.80;67.30;;;;;;4952493;29;20750;-76
2021/11/12 09:57:20;;;;;;;5.13;4.35;;;15.90;67.30;;;;;;4952789;28;20859;-70
2021/11/12 09:59:50;;;;;;;5.35;4.80;;;16.10;66.60;;;;;;4953090;28;20439;-69
2021/11/12 10:02:18;;;;;;;5.40;4.27;;;16.20;66.90;;;;;;4959307;28;20409;-77
2021/11/12 10:04:47;;;;;;;5.47;4.17;;;16.40;64.70;;;;;;4952388;28;20417;-76
2021/11/12 10:07:21;;;;;;;6.53;4.18;;;16.30;64.80;;;;;;4947767;28;20421;-74
2021/11/12 10:10:04;;;;;;;5.55;4.35;;;16.30;65.70;;;;;;4951014;29;20449;-79
2021/11/12 10:12:42;;;;;;;6.28;4.13;;;16.40;65.30;;;;;;4952350;28;20440;-77
2021/11/12 10:15:19;;;;;;;4.63;3.90;;;16.40;64.80;;;;;;4968350;28;20055;-75
2021/11/12 10:17:48;;;;;;;6.82;4.18;;;16.50;65.20;;;;;;4951103;28;20098;-76
2021/11/12 10:20:18;;;;;;;6.50;4.60;;;16.60;65.60;;;;;;4951429;29;20921;-74
2021/11/12 10:22:48;;;;;;;6.20;5.17;;;16.70;65.10;;;;;;4952632;28;20401;-74
2021/11/12 10:25:16;;;;;;;5.90;4.37;;;16.70;63.60;;;;;;4951453;28;20440;-73
2021/11/12 10:27:50;;;;;;;5.72;4.30;;;16.50;64.20;;;;;;4967639;28;20440;-73
2021/11/12 10:30:28;;;;;;;6.85;4.50;;;16.40;64.50;;;;;;4950964;29;20494;-75
2021/11/12 10:32:58;;;;;;;5.82;3.88;;;16.30;64.50;;;;;;4952272;28;20452;-79
2021/11/12 10:35:30;;;;;;;6.30;3.72;;;16.30;64.80;;;;;;4950575;28;20401;-76
2021/11/12 10:38:11;;;;;;;5.78;3.92;;;16.20;63.60;;;;;;4951323;29;20420;-76
2021/11/12 10:40:39;;;;;;;4.78;3.40;;;16.10;64.00;;;;;;4952316;28;20429;-74
2021/11/12 10:43:06;;;;;;;5.97;3.45;;;16.00;64.80;;;;;;4951882;28;21005;-74
2021/11/12 10:45:34;;;;;;;5.00;3.47;;;16.10;63.70;;;;;;4950744;28;21419;-76
2021/11/12 10:48:06;;;;;;;7.40;3.85;;;16.00;64.10;;;;;;4950678;28;21016;-74
2021/11/12 10:50:38;;;;;;;5.07;3.75;;;16.00;63.40;;;;;;4951800;28;20464;-77
2021/11/12 10:53:15;;;;;;;6.72;3.65;;;15.80;64.10;;;;;;4952793;28;20495;-78
2021/11/12 10:55:45;;;;;;;5.65;3.60;;;15.80;65.10;;;;;;4934553;29;20421;-74
2021/11/12 10:58:13;;;;;;;5.10;3.97;;;15.90;64.40;;;;;;4950541;29;20467;-73
2021/11/12 11:00:48;;;;;;;4.43;3.17;;;15.90;65.00;;;;;;4950712;28;20429;-72
2021/11/12 11:03:20;;;;;;;6.17;3.80;;;16.00;63.60;;;;;;4951370;28;20421;-77
2021/11/12 11:05:54;;;;;;;4.53;3.58;;;16.00;64.10;;;;;;4952691;28;20413;-78
2021/11/12 11:08:25;;;;;;;4.80;3.88;;;16.20;63.60;;;;;;4950162;28;20408;-72
2021/11/12 11:10:59;;;;;;;6.15;4.30;;;16.30;63.70;;;;;;4951630;28;20416;-71
2021/11/12 11:13:29;;;;;;;5.13;3.60;;;16.30;63.00;;;;;;4950913;28;20479;-77
2021/11/12 11:16:05;;;;;;;4.53;3.55;;;16.50;63.10;;;;;;4951987;28;20404;-76
2021/11/12 11:18:37;;;;;;;5.15;4.25;;;16.80;63.50;;;;;;4951940;28;20413;-74
2021/11/12 11:21:10;;;;;;;6.67;4.10;;;17.10;63.90;;;;;;4951522;28;20436;-76
2021/11/12 11:24:07;;;;;;;5.30;4.22;;;17.40;62.90;;;;;;4950904;28;20404;-73
2021/11/12 11:26:37;;;;;;;6.43;4.97;;;17.80;61.50;;;;;;4951411;28;20420;-74
2021/11/12 11:29:06;;;;;;;7.18;5.15;;;18.00;60.80;;;;;;4949540;29;20408;-79
2021/11/12 11:31:34;;;;;;;6.90;5.22;;;18.30;61.10;;;;;;4950817;28;20480;-77
2021/11/12 11:34:03;;;;;;;6.75;5.35;;;18.50;60.90;;;;;;4968573;28;20047;-77
2021/11/12 11:36:34;;;;;;;7.90;6.32;;;18.50;57.80;;;;;;4951147;29;20464;-74
2021/11/12 11:39:05;;;;;;;7.50;5.22;;;18.00;57.80;;;;;;4953114;28;20035;-77
2021/11/12 11:41:33;;;;;;;8.90;5.53;;;18.10;58.60;;;;;;4952607;28;20537;-76
2021/11/12 11:44:00;;;;;;;10.55;5.00;;;18.20;58.10;;;;;;4951999;28;20118;-78
2021/11/12 11:46:30;;;;;;;5.15;3.47;;;18.30;59.10;;;;;;4952715;28;20051;-74
2021/11/12 11:48:59;;;;;;;5.82;3.88;;;18.50;59.10;;;;;;4951377;28;20414;-77
2021/11/12 11:51:37;;;;;;;6.47;4.45;;;18.70;58.90;;;;;;4935684;29;20407;-74
2021/11/12 11:54:04;;;;;;;6.75;4.00;;;18.70;58.90;;;;;;4952118;29;20043;-78
2021/11/12 11:56:37;;;;;;;6.68;4.25;;;18.80;58.50;;;;;;4952974;28;20043;-78
2021/11/12 11:59:10;;;;;;;7.22;4.88;;;19.00;58.30;;;;;;4950439;29;20083;-74
2021/11/12 12:01:52;;;;;;;7.43;4.73;;;19.00;56.40;;;;;;4952585;28;20045;-75
2021/11/12 12:04:18;;;;;;;5.35;3.90;;;19.00;57.90;;;;;;4966616;28;20055;-74
2021/11/12 12:07:01;;;;;;;6.28;4.80;;;19.20;58.10;;;;;;4951343;29;20031;-74
2021/11/12 12:10:00;;;;;;;7.30;4.70;;;19.30;56.50;;;;;;4951886;29;20039;-76
2021/11/12 12:12:39;;;;;;;7.78;4.75;;;19.40;56.60;;;;;;4928877;29;20043;-75
2021/11/12 12:15:06;;;;;;;8.52;5.15;;;19.50;55.80;;;;;;4958033;28;20122;-78
2021/11/12 12:17:36;;;;;;;7.50;5.20;;;19.40;55.90;;;;;;4952697;29;20078;-76
2021/11/12 12:40:34;;;;;;;12.13;6.57;;;19.70;57.30;;;;;;4954770;29;20044;-74
2021/11/12 13:25:56;;;;;;;;;;;18.60;63.80;;;;;;4954520;28;20046;-73
2021/11/12 13:28:29;;;;;;;21.95;14.70;;;18.40;64.00;;;;;;4961601;28;19923;-73
2021/11/12 13:30:57;;;;;;;20.30;14.93;;;18.30;64.70;;;;;;4969358;28;20047;-76
2021/11/12 13:33:31;;;;;;;21.42;15.85;;;18.10;64.00;;;;;;4954581;29;20118;-75
2021/11/12 13:35:59;;;;;;;;;;;18.00;64.80;;;;;;4953709;28;20055;-76
2021/11/12 13:38:51;;;;;;;24.20;15.88;;;18.00;65.80;;;;;;4954316;28;19928;-73
2021/11/12 13:41:19;;;;;;;;;;;18.00;66.60;;;;;;4952880;28;20043;-79
2021/11/12 13:43:48;;;;;;;;;;;17.80;66.80;;;;;;4955231;28;19937;-74
2021/11/12 13:46:15;;;;;;;;;;;17.80;67.00;;;;;;4955323;28;19922;-74
2021/11/12 13:48:43;;;;;;;;;;;17.70;67.20;;;;;;4953645;28;19922;-73
2021/11/12 13:51:10;;;;;;;;;;;17.50;67.20;;;;;;4955702;28;19923;-76
2021/11/12 13:53:37;;;;;;;;;;;17.40;68.40;;;;;;4954854;28;19930;-74
2021/11/12 13:56:07;;;;;;;;;;;17.30;68.10;;;;;;4954335;28;20021;-75
2021/11/12 13:58:34;;;;;;;;;;;17.20;68.70;;;;;;4954402;28;19922;-77
2021/11/12 14:01:01;;;;;;;;;;;17.10;68.60;;;;;;4953803;28;19933;-82
2021/11/12 14:03:33;;;;;;;;;;;17.10;69.40;;;;;;4955046;28;19952;-75
2021/11/12 14:06:04;;;;;;;;;;;17.00;69.80;;;;;;4952957;28;19923;-73
2021/11/12 14:08:35;;;;;;;;;;;17.00;70.00;;;;;;4952602;28;19932;-79
2021/11/12 14:11:03;;;;;;;;;;;16.90;70.00;;;;;;4969537;28;19934;-72
2021/11/12 14:13:39;;;;;;;;;;;16.90;70.60;;;;;;4953708;29;20302;-80
2021/11/12 14:21:35;;;;;;;;;;;16.70;70.20;;;;;;4953500;29;19926;-78
2021/11/12 14:35:11;;;;;;;37.78;18.92;;;16.60;70.60;;;;;;4954023;28;20020;-78
2021/11/12 14:40:12;;;;;;;;;;;16.60;71.20;;;;;;4953013;28;19929;-76
2021/11/12 14:45:32;;;;;;;;;;;16.60;70.80;;;;;;4953562;28;20058;-75
2021/11/12 14:48:14;;;;;;;;;;;16.60;70.70;;;;;;4952785;28;19922;-75
2021/11/12 14:50:46;;;;;;;;;;;16.60;70.80;;;;;;4953242;28;19926;-72
2021/11/12 14:53:19;;;;;;;;;;;16.60;70.90;;;;;;4952211;28;19930;-73
2021/11/12 14:55:50;;;;;;;;;;;16.60;71.10;;;;;;4953949;28;19930;-73
2021/11/12 14:58:18;;;;;;;;;;;16.50;70.80;;;;;;4952719;28;19922;-73
2021/11/12 15:00:59;;;;;;;;;;;16.50;71.00;;;;;;4953630;28;19930;-73
2021/11/12 15:03:26;;;;;;;;;;;16.50;71.10;;;;;;4953525;29;19923;-73
2021/11/12 15:05:53;;;;;;;;;;;16.40;71.20;;;;;;4953792;28;20374;-73
2021/11/12 15:08:23;;;;;;;;;;;16.30;71.50;;;;;;4953710;28;20005;-72
2021/11/12 15:10:52;;;;;;;;;;;16.20;72.00;;;;;;4952767;28;19923;-73
2021/11/12 15:13:19;;;;;;;;;;;16.10;72.20;;;;;;4953210;29;19922;-79
2021/11/12 15:15:47;;;;;;;;;;;16.10;72.50;;;;;;4954448;28;19930;-74
2021/11/12 15:18:17;;;;;;;;;;;16.00;73.00;;;;;;4952486;28;20390;-73
2021/11/12 15:20:44;;;;;;;;;;;15.90;73.50;;;;;;4953779;29;20378;-72
2021/11/12 15:26:12;;;;;;;;;;;15.70;74.30;;;;;;4953082;28;20025;-72
2021/11/12 15:33:45;;;;;;;23.73;17.00;;;15.60;74.80;;;;;;4952555;28;19931;-72
2021/11/12 15:36:15;;;;;;;26.08;20.17;;;15.50;75.30;;;;;;4953448;28;20043;-72
2021/11/12 15:38:55;;;;;;;;;;;15.40;75.70;;;;;;4952296;28;20051;-76
2021/11/12 15:41:50;;;;;;;;;;;15.30;76.20;;;;;;4953132;28;19948;-78
2021/11/12 15:44:19;;;;;;;;;;;15.20;76.60;;;;;;4952831;29;19923;-74
2021/11/12 15:46:49;;;;;;;;;;;15.10;77.20;;;;;;4951957;29;20054;-75
2021/11/12 15:49:23;;;;;;;;;;;15.10;77.20;;;;;;4951596;28;20608;-73
2021/11/12 15:52:16;;;;;;;;;;;15.10;77.10;;;;;;4953525;28;19923;-71
2021/11/12 15:54:55;;;;;;;;;;;15.00;77.10;;;;;;4952795;28;19936;-78
2021/11/12 16:00:33;;;;;;;;;;;14.90;77.20;;;;;;4969609;28;19973;-71
2021/11/12 16:03:42;;;;;;;;;;;14.80;77.30;;;;;;4956324;28;19929;-75
2021/11/12 16:26:37;;;;;;;;;;;13.90;80.10;;;;;;4956421;28;19923;-74
2021/11/12 16:31:47;;;;;;;;;;;13.80;81.80;;;;;;4955495;28;19957;-76
2021/11/12 16:34:19;;;;;;;;;;;13.60;82.40;;;;;;4971279;28;19923;-74
2021/11/12 16:36:53;;;;;;;;;;;13.50;82.90;;;;;;4956577;28;19929;-79
2021/11/12 16:39:26;;;;;;;;;;;13.30;83.60;;;;;;4970644;28;19947;-74
2021/11/12 16:42:00;;;;;;;;;;;13.20;83.40;;;;;;4956157;28;19929;-74
2021/11/12 16:45:16;;;;;;;;;;;13.20;82.70;;;;;;4970089;28;19929;-74
2021/11/12 16:52:42;;;;;;;;;;;13.00;82.30;;;;;;4955412;28;19936;-73
2021/11/12 17:05:54;;;;;;;;;;;12.70;83.10;;;;;;4954036;29;19922;-74
2021/11/12 17:46:38;;;;;;;36.30;23.50;;;11.70;85.60;;;;;;4912311;29;20044;-76
2021/11/12 18:02:41;;;;;;;;;;;11.00;86.70;;;;;;4952409;29;19922;-74
2021/11/12 18:05:24;;;;;;;;;;;11.00;86.00;;;;;;4952883;28;19929;-74
2021/11/12 21:44:47;;;;;;;42.78;33.85;;;8.10;91.00;;;;;;4951054;29;20414;-75
2021/11/12 21:46:51;;;;;;;43.65;33.97;;;8.20;91.10;;;;;;4947701;28;20432;-74
2021/11/12 21:49:18;;;;;;;34.65;28.13;;;8.00;91.50;;;;;;4949986;29;20415;-74
2021/11/12 21:51:45;;;;;;;31.93;25.40;;;8.00;91.50;;;;;;4964441;28;20873;-79
2021/11/12 21:54:13;;;;;;;25.87;23.03;;;8.00;91.40;;;;;;4950827;29;20545;-79
2021/11/12 21:56:40;;;;;;;22.77;20.47;;;8.00;91.10;;;;;;4951735;28;20445;-77
2021/11/12 21:59:07;;;;;;;22.27;19.40;;;7.90;91.10;;;;;;4933651;29;20895;-74
2021/11/12 22:01:36;;;;;;;22.60;20.03;;;7.90;91.00;;;;;;4951608;29;20413;-75
2021/11/12 22:04:04;;;;;;;21.05;18.85;;;8.00;90.90;;;;;;4952668;28;20435;-79
2021/11/12 22:06:31;;;;;;;23.20;20.17;;;8.00;90.70;;;;;;4953601;28;20528;-74
2021/11/12 22:08:58;;;;;;;24.33;21.65;;;8.00;90.60;;;;;;4965742;28;20401;-74
2021/11/12 22:11:26;;;;;;;23.30;20.80;;;8.00;90.40;;;;;;4963616;28;20508;-73
2021/11/12 22:13:53;;;;;;;30.75;26.83;;;8.00;90.30;;;;;;4951741;29;20416;-74
2021/11/12 22:16:21;;;;;;;27.60;24.50;;;8.00;90.60;;;;;;4951552;28;20781;-73
2021/11/12 22:18:50;;;;;;;28.88;25.75;;;8.00;90.70;;;;;;4949791;29;20452;-74
2021/11/12 22:21:19;;;;;;;26.30;22.93;;;8.00;90.60;;;;;;4951878;28;20494;-77
2021/11/12 22:23:46;;;;;;;25.33;22.58;;;8.00;90.50;;;;;;4952301;28;20427;-79
2021/11/12 22:26:15;;;;;;;29.33;23.63;;;7.90;90.60;;;;;;4943197;28;20453;-77
2021/11/12 22:28:43;;;;;;;27.33;22.80;;;7.90;90.60;;;;;;4951167;28;20439;-79
2021/11/12 22:31:10;;;;;;;29.37;25.70;;;7.80;90.60;;;;;;4943114;29;20416;-74
2021/11/12 22:33:37;;;;;;;29.30;25.13;;;7.80;91.20;;;;;;4934716;29;20497;-74
2021/11/12 22:36:04;;;;;;;30.00;25.27;;;7.80;91.10;;;;;;4959047;28;20405;-79
2021/11/12 22:38:31;;;;;;;32.22;27.38;;;7.80;90.90;;;;;;4958767;28;20420;-79
2021/11/12 22:40:58;;;;;;;34.30;28.48;;;7.80;91.00;;;;;;4950715;28;20416;-74
2021/11/12 22:43:26;;;;;;;36.55;30.65;;;7.90;90.80;;;;;;4951693;28;20428;-74
2021/11/12 22:45:54;;;;;;;29.30;26.08;;;7.90;91.00;;;;;;4950981;28;20435;-74
2021/11/12 22:48:21;;;;;;;31.27;24.73;;;7.80;91.00;;;;;;4958066;28;20406;-76
2021/11/12 22:50:49;;;;;;;27.38;23.20;;;7.60;91.10;;;;;;4933795;29;20501;-74
2021/11/12 22:53:17;;;;;;;24.52;21.73;;;7.60;91.20;;;;;;4949663;29;20417;-79
2021/11/12 22:55:44;;;;;;;24.08;21.35;;;7.60;91.20;;;;;;4951789;28;20411;-77
2021/11/12 22:58:12;;;;;;;25.45;22.38;;;7.60;91.30;;;;;;4949917;29;20506;-79
2021/11/12 23:00:51;;;;;;;25.60;22.77;;;7.60;92.10;;;;;;4942535;28;20413;-77
2021/11/12 23:03:18;;;;;;;24.90;22.17;;;7.70;91.70;;;;;;4951911;28;20420;-80
2021/11/12 23:05:46;;;;;;;24.42;21.83;;;7.70;91.70;;;;;;4951162;28;20416;-79
2021/11/12 23:08:13;;;;;;;29.83;24.65;;;7.70;91.60;;;;;;4942596;28;20402;-77
2021/11/12 23:10:40;;;;;;;29.13;25.13;;;7.70;91.70;;;;;;4950653;28;20412;-79
2021/11/12 23:13:07;;;;;;;34.78;27.45;;;7.80;91.60;;;;;;4957742;28;20440;-79
2021/11/12 23:15:34;;;;;;;29.17;24.98;;;7.80;91.60;;;;;;4951231;28;20412;-74
2021/11/12 23:18:02;;;;;;;24.55;22.00;;;7.80;91.40;;;;;;4951153;28;20425;-76
2021/11/12 23:20:29;;;;;;;22.98;20.48;;;7.80;91.10;;;;;;4950710;28;20496;-77
2021/11/12 23:22:56;;;;;;;22.00;19.60;;;7.80;91.00;;;;;;4951140;28;20482;-77